LTCL Airport Information

Runway Information
Runway 06 Length 5905 ft width 98 ft
Elevation 1946 ft Threshold 0 ft Heading 68
Runway 24 Length 5905 ft Width 98 ft
Elevation 2000 ft Threshold 0 ft Heading 248
Airport Frequencies
Type TWR Name TWR Frequency 132.05 MHZ
Airport Navaids
Type VOR-DME Name Siirt Frequency 114300 KHZ
Type NDB Name Siirt Frequency 409 KHZ
Airport Weather Information & NOTAM
ADDS - METARS form results

(1949 UTC 25 April 2019)
Data provider http://aviationweather.gov/metar/data/
 
Forecast for: LTCL (SIIRT AIRPORT , TR)
Text: TAF LTCL 251340Z 2515/2524 33012KT 9999 FEW040
Forecast period: 1500 UTC 25 April 2019 to 0000 UTC 26 April 2019
Forecast type: FROM: standard forecast or significant change
Winds: from the NNW (330 degrees) at 14 MPH (12 knots; 6.2 m/s)
Visibility: 6 or more miles 10+ km)
Ceiling: at least 12,000 feet AGL
Clouds: few clouds at 4000 feet AGL
Weather: no significant weather forecast for this period
Text: BECMG 2515/2517 CAVOK
Forecast period: 1500 UTC 25 April 2019 to 0000 UTC 26 April 2019
Forecast type: BECOMING: Conditions expected to become as follows by 1700 UTC 25 April 2019
Winds: from the NNW (330 degrees) at 14 MPH (12 knots; 6.2 m/s)
Visibility: 6 or more miles 10+ km)
Ceiling: unknown
Clouds: missing
Weather: NSW  (no significant weather)